Time;durP1;ratioP1;P1;durP2;ratioP2;P2;SDS_P1;SDS_P2;PMS_P1;PMS_P2;Temp;Humidity;BMP_temperature;BMP_pressure;BME280_temperature;BME280_humidity;BME280_pressure;Samples;Min_cycle;Max_cycle;Signal;HPM_P1;HPM_P2
2021/06/14 00:00:10;;;;;;;1.70;1.40;;;20.90;99.90;;;;;;4974713;28;20479;-82
2021/06/14 00:02:39;;;;;;;3.40;1.33;;;20.90;99.90;;;;;;4961026;28;20459;-83
2021/06/14 00:05:10;;;;;;;1.43;1.33;;;21.00;99.90;;;;;;4969118;28;20455;-83
2021/06/14 00:07:40;;;;;;;3.33;1.50;;;20.90;99.90;;;;;;4989979;28;20485;-81
2021/06/14 00:10:09;;;;;;;2.37;1.40;;;21.00;99.90;;;;;;4992788;28;20478;-81
2021/06/14 00:12:38;;;;;;;2.90;1.40;;;20.90;99.90;;;;;;4986968;28;20518;-83
2021/06/14 00:15:08;;;;;;;1.30;1.20;;;20.90;99.90;;;;;;4978892;28;20449;-83
2021/06/14 00:17:36;;;;;;;1.93;1.20;;;20.90;99.90;;;;;;4978926;28;20546;-83
2021/06/14 00:20:08;;;;;;;1.90;1.70;;;20.80;99.90;;;;;;4971776;28;21011;-84
2021/06/14 00:22:37;;;;;;;4.23;1.60;;;20.80;99.90;;;;;;4979008;28;20450;-81
2021/06/14 00:25:10;;;;;;;3.47;1.80;;;20.70;99.90;;;;;;4967484;28;20955;-80
2021/06/14 00:27:38;;;;;;;3.33;1.80;;;20.70;99.90;;;;;;4977214;28;20451;-79
2021/06/14 00:30:08;;;;;;;2.53;2.13;;;20.60;99.90;;;;;;4978236;28;20482;-79
2021/06/14 00:32:36;;;;;;;1.70;1.60;;;20.50;99.90;;;;;;4979099;28;20455;-79
2021/06/14 00:35:06;;;;;;;2.33;1.53;;;20.40;99.90;;;;;;4978738;28;20455;-80
2021/06/14 00:37:34;;;;;;;2.40;1.70;;;20.40;99.90;;;;;;4984253;28;20446;-81
2021/06/14 00:40:02;;;;;;;2.73;2.40;;;20.30;99.90;;;;;;4975599;28;20522;-79
2021/06/14 00:42:32;;;;;;;2.03;1.80;;;20.30;99.90;;;;;;4979605;28;20470;-80
2021/06/14 00:45:00;;;;;;;3.33;1.83;;;20.30;99.90;;;;;;4976569;28;20454;-80
2021/06/14 00:47:28;;;;;;;4.30;1.70;;;20.20;99.90;;;;;;4981074;28;20943;-82
2021/06/14 00:49:57;;;;;;;6.23;1.80;;;20.10;99.90;;;;;;4975537;28;20542;-82
2021/06/14 00:52:25;;;;;;;2.47;1.73;;;20.10;99.90;;;;;;4985893;28;20811;-82
2021/06/14 00:54:53;;;;;;;2.27;1.73;;;20.00;99.90;;;;;;4979107;28;20450;-82
2021/06/14 00:57:21;;;;;;;1.90;1.50;;;19.90;99.90;;;;;;4976633;28;20525;-81
2021/06/14 00:59:52;;;;;;;6.77;1.83;;;19.80;99.90;;;;;;4973824;28;20474;-82
2021/06/14 01:02:20;;;;;;;1.77;1.63;;;19.80;99.90;;;;;;4987372;28;20458;-80
2021/06/14 01:04:48;;;;;;;2.83;2.10;;;19.70;99.90;;;;;;4978729;28;20463;-82
2021/06/14 01:07:16;;;;;;;3.17;1.80;;;19.80;99.90;;;;;;4973762;28;20971;-81
2021/06/14 01:09:44;;;;;;;1.90;1.80;;;19.80;99.90;;;;;;4982913;28;21008;-82
2021/06/14 01:12:14;;;;;;;1.93;1.80;;;19.80;99.90;;;;;;4978673;28;20458;-82
2021/06/14 01:14:51;;;;;;;3.60;1.90;;;19.80;99.90;;;;;;4985093;28;20456;-81
2021/06/14 01:17:28;;;;;;;2.67;1.97;;;19.80;99.90;;;;;;4977400;28;20450;-82
2021/06/14 01:20:32;;;;;;;2.57;1.93;;;19.70;99.90;;;;;;4974520;28;20491;-82
2021/06/14 01:23:24;;;;;;;2.33;1.80;;;19.70;99.90;;;;;;4978406;28;20463;-81
2021/06/14 01:25:56;;;;;;;5.40;1.70;;;19.60;99.90;;;;;;4975093;28;20468;-82
2021/06/14 01:28:28;;;;;;;3.73;1.80;;;19.50;99.90;;;;;;4989329;28;20478;-81
2021/06/14 01:30:57;;;;;;;3.43;2.17;;;19.50;99.90;;;;;;4969257;28;20463;-83
2021/06/14 01:33:28;;;;;;;1.87;1.30;;;19.50;99.90;;;;;;4960163;28;20444;-81
2021/06/14 01:35:59;;;;;;;2.23;1.87;;;19.40;99.90;;;;;;4982140;28;20455;-79
2021/06/14 01:38:29;;;;;;;3.00;2.07;;;19.40;99.90;;;;;;4979288;28;20576;-81
2021/06/14 01:41:01;;;;;;;3.20;2.30;;;19.40;99.90;;;;;;4969660;28;20495;-82
2021/06/14 01:43:33;;;;;;;2.20;2.00;;;19.30;99.90;;;;;;4980851;28;20455;-81
2021/06/14 01:46:04;;;;;;;2.20;2.00;;;19.30;99.90;;;;;;4985022;28;20519;-81
2021/06/14 01:48:34;;;;;;;2.37;1.60;;;19.20;99.90;;;;;;4999344;28;20449;-80
2021/06/14 01:51:07;;;;;;;1.87;1.77;;;19.10;99.90;;;;;;4987124;28;20458;-81
2021/06/14 01:53:36;;;;;;;2.30;2.00;;;19.10;99.90;;;;;;4983390;28;20485;-84
2021/06/14 01:56:07;;;;;;;2.00;1.80;;;19.10;99.90;;;;;;4978150;28;20493;-81
2021/06/14 01:58:38;;;;;;;2.10;1.87;;;19.10;99.90;;;;;;4967121;28;20452;-80
2021/06/14 02:01:07;;;;;;;1.80;1.70;;;19.10;99.90;;;;;;4967634;28;20485;-81
2021/06/14 02:03:37;;;;;;;3.83;2.03;;;19.10;99.90;;;;;;4981991;28;20501;-82
2021/06/14 02:06:06;;;;;;;4.73;2.30;;;19.10;99.90;;;;;;4996859;28;20457;-81
2021/06/14 02:08:34;;;;;;;4.40;2.50;;;19.00;99.90;;;;;;4994699;28;20546;-82
2021/06/14 02:11:03;;;;;;;1.87;1.77;;;19.00;99.90;;;;;;4978708;28;20451;-83
2021/06/14 02:13:31;;;;;;;4.37;2.10;;;18.90;99.90;;;;;;4976507;28;20960;-80
2021/06/14 02:16:00;;;;;;;2.20;2.10;;;18.90;99.90;;;;;;4976504;28;20461;-80
2021/06/14 02:18:29;;;;;;;1.97;1.83;;;18.90;99.90;;;;;;4976934;28;20470;-81
2021/06/14 02:20:57;;;;;;;2.47;1.90;;;18.80;99.90;;;;;;4977637;28;20482;-80
2021/06/14 02:23:25;;;;;;;3.17;1.70;;;18.80;99.90;;;;;;4975022;28;20486;-82
2021/06/14 02:25:53;;;;;;;2.00;1.70;;;18.80;99.90;;;;;;4993944;28;20510;-82
2021/06/14 02:28:21;;;;;;;2.67;2.47;;;18.70;99.90;;;;;;4984333;28;20680;-81
2021/06/14 02:30:49;;;;;;;2.53;2.33;;;18.70;99.90;;;;;;4974670;28;20486;-82
2021/06/14 02:33:19;;;;;;;4.07;1.97;;;18.70;99.90;;;;;;4978277;28;20459;-79
2021/06/14 02:35:47;;;;;;;2.60;2.33;;;18.70;99.90;;;;;;4977551;28;20462;-82
2021/06/14 02:38:16;;;;;;;4.30;2.10;;;18.60;99.90;;;;;;4977982;28;20458;-82
2021/06/14 02:40:44;;;;;;;2.60;2.17;;;18.60;99.90;;;;;;4980917;28;20475;-81
2021/06/14 02:43:13;;;;;;;1.90;1.80;;;18.60;99.90;;;;;;4982180;28;20461;-82
2021/06/14 02:45:42;;;;;;;1.97;1.80;;;18.50;99.90;;;;;;4978700;28;20459;-83
2021/06/14 02:48:11;;;;;;;3.53;2.17;;;18.50;99.90;;;;;;4987005;28;20486;-85
2021/06/14 02:50:42;;;;;;;2.50;2.30;;;18.50;99.90;;;;;;4979093;28;21075;-83
2021/06/14 02:53:13;;;;;;;8.87;4.57;;;18.50;99.90;;;;;;4992380;28;20821;-79
2021/06/14 02:55:49;;;;;;;6.40;4.00;;;18.40;99.90;;;;;;4983270;28;20439;-82
2021/06/14 02:58:25;;;;;;;10.07;4.43;;;18.40;99.90;;;;;;4991429;28;20451;-81
2021/06/14 03:00:54;;;;;;;4.33;3.00;;;18.40;99.90;;;;;;4980078;28;20481;-83
2021/06/14 03:03:23;;;;;;;2.40;2.20;;;18.40;99.90;;;;;;4989612;28;20454;-81
2021/06/14 03:05:52;;;;;;;2.40;2.20;;;18.30;99.90;;;;;;4978112;28;20458;-82
2021/06/14 03:08:22;;;;;;;3.97;2.40;;;18.30;99.90;;;;;;4977119;28;20456;-83
2021/06/14 03:10:50;;;;;;;2.47;2.20;;;18.30;99.90;;;;;;4972720;28;20467;-83
2021/06/14 03:13:18;;;;;;;5.43;1.93;;;18.30;99.90;;;;;;4990707;28;20546;-83
2021/06/14 03:15:47;;;;;;;2.37;2.17;;;18.30;99.90;;;;;;4976121;28;20447;-83
2021/06/14 03:18:15;;;;;;;2.50;2.30;;;18.20;99.90;;;;;;4978991;28;20484;-81
2021/06/14 03:20:46;;;;;;;3.70;2.23;;;18.20;99.90;;;;;;4972932;28;20837;-82
2021/06/14 03:23:17;;;;;;;1.90;1.80;;;18.20;99.90;;;;;;4956676;28;20471;-83
2021/06/14 03:25:45;;;;;;;5.23;2.60;;;18.20;99.90;;;;;;4967074;28;20450;-82
2021/06/14 03:28:15;;;;;;;5.03;2.47;;;18.10;99.90;;;;;;4974741;28;20458;-81
2021/06/14 03:30:44;;;;;;;1.90;1.60;;;18.10;99.90;;;;;;4972334;28;20483;-82
2021/06/14 03:33:16;;;;;;;2.33;2.10;;;18.10;99.90;;;;;;4972944;28;20538;-84
2021/06/14 03:35:45;;;;;;;4.50;2.20;;;18.00;99.90;;;;;;4972302;28;20506;-83
2021/06/14 03:38:16;;;;;;;3.03;2.00;;;18.00;99.90;;;;;;4975359;28;20441;-81
2021/06/14 03:40:44;;;;;;;2.30;2.10;;;18.00;99.90;;;;;;4976175;28;20485;-81
2021/06/14 03:43:12;;;;;;;1.80;1.70;;;18.00;99.90;;;;;;4988914;28;20962;-81
2021/06/14 03:45:40;;;;;;;2.13;1.93;;;18.00;99.90;;;;;;4981676;28;20461;-81
2021/06/14 03:48:09;;;;;;;7.50;3.10;;;18.00;99.90;;;;;;4994424;28;20519;-81
2021/06/14 03:50:37;;;;;;;3.23;1.83;;;18.00;99.90;;;;;;4975537;28;20583;-82
2021/06/14 03:53:06;;;;;;;2.30;1.93;;;18.00;99.90;;;;;;4990537;28;20512;-82
2021/06/14 03:55:36;;;;;;;2.07;1.90;;;17.90;99.90;;;;;;4974901;28;20508;-81
2021/06/14 03:58:04;;;;;;;2.43;2.20;;;17.90;99.90;;;;;;4977272;28;20463;-81
2021/06/14 04:00:32;;;;;;;3.03;2.63;;;18.00;99.90;;;;;;4978053;28;20487;-82
2021/06/14 04:03:00;;;;;;;2.00;1.80;;;17.90;99.90;;;;;;4975945;28;20467;-82
2021/06/14 04:05:29;;;;;;;2.00;1.80;;;17.90;99.90;;;;;;4969604;28;20463;-82
2021/06/14 04:07:57;;;;;;;2.60;2.40;;;17.90;99.90;;;;;;4987817;28;20454;-83
2021/06/14 04:10:25;;;;;;;4.20;2.63;;;17.90;99.90;;;;;;4975202;28;20478;-82
2021/06/14 04:12:55;;;;;;;2.60;2.37;;;17.90;99.90;;;;;;4980509;28;20457;-82
2021/06/14 04:15:23;;;;;;;3.10;2.40;;;18.00;99.90;;;;;;4982858;28;20966;-83
2021/06/14 04:17:51;;;;;;;3.60;2.60;;;18.00;99.90;;;;;;4979258;28;20506;-83
2021/06/14 04:20:19;;;;;;;2.83;2.53;;;18.10;99.90;;;;;;4981928;28;20858;-82
2021/06/14 04:22:47;;;;;;;2.87;2.40;;;18.10;99.90;;;;;;4977336;28;20466;-82
2021/06/14 04:25:15;;;;;;;6.30;2.80;;;18.10;99.90;;;;;;4976097;28;21053;-82
2021/06/14 04:27:44;;;;;;;3.10;2.17;;;18.00;99.90;;;;;;4994741;28;20469;-82
2021/06/14 04:30:18;;;;;;;2.77;2.40;;;18.00;99.90;;;;;;4970729;28;20497;-82
2021/06/14 04:32:46;;;;;;;3.00;2.57;;;18.00;99.90;;;;;;4977252;28;20806;-82
2021/06/14 04:35:15;;;;;;;4.20;2.70;;;18.00;99.90;;;;;;4978546;28;20446;-81
2021/06/14 04:37:43;;;;;;;3.00;2.43;;;18.10;99.90;;;;;;4971514;28;20464;-80
2021/06/14 04:40:12;;;;;;;3.33;3.03;;;18.10;99.90;;;;;;4977086;28;20836;-80
2021/06/14 04:42:40;;;;;;;2.77;2.53;;;18.10;99.90;;;;;;4978505;28;20960;-79
2021/06/14 04:45:10;;;;;;;2.57;2.37;;;18.10;99.90;;;;;;4976154;28;20455;-78
2021/06/14 04:47:40;;;;;;;3.33;2.10;;;18.10;99.90;;;;;;4988739;28;20532;-79
2021/06/14 04:50:09;;;;;;;2.53;2.10;;;18.10;99.90;;;;;;4980329;28;20490;-78
2021/06/14 04:52:37;;;;;;;5.10;2.93;;;18.20;99.90;;;;;;4987005;28;20449;-79
2021/06/14 04:55:07;;;;;;;2.50;2.30;;;18.20;99.90;;;;;;4979485;28;20456;-79
2021/06/14 04:57:35;;;;;;;4.40;2.83;;;18.20;99.90;;;;;;4984970;28;20460;-79
2021/06/14 05:00:05;;;;;;;3.70;3.40;;;18.30;99.90;;;;;;4969303;28;20466;-79
2021/06/14 05:02:34;;;;;;;2.63;2.43;;;18.30;99.90;;;;;;4975979;28;20489;-81
2021/06/14 05:05:04;;;;;;;2.57;2.37;;;18.30;99.90;;;;;;4974775;28;20487;-79
2021/06/14 05:07:33;;;;;;;3.20;2.20;;;18.30;99.90;;;;;;4966219;28;20550;-79
2021/06/14 05:10:01;;;;;;;3.13;2.17;;;18.50;99.90;;;;;;4967608;28;20506;-80
2021/06/14 05:12:36;;;;;;;2.50;2.00;;;18.50;99.90;;;;;;4970927;28;20454;-77
2021/06/14 05:15:06;;;;;;;2.70;2.10;;;18.60;99.90;;;;;;4966713;28;20490;-76
2021/06/14 05:17:34;;;;;;;2.90;2.67;;;18.60;99.90;;;;;;4978138;28;21116;-77
2021/06/14 05:20:05;;;;;;;2.70;2.00;;;18.50;99.90;;;;;;4972531;28;20478;-75
2021/06/14 05:22:33;;;;;;;1.97;1.83;;;18.50;99.90;;;;;;4969426;28;20574;-79
2021/06/14 05:25:02;;;;;;;4.70;2.00;;;18.50;99.90;;;;;;4967228;28;20450;-79
2021/06/14 05:27:30;;;;;;;2.20;2.10;;;18.70;99.90;;;;;;4976434;28;20459;-76
2021/06/14 05:29:58;;;;;;;2.47;1.87;;;18.70;99.90;;;;;;4978727;28;20489;-79
2021/06/14 05:32:26;;;;;;;3.37;1.50;;;18.70;99.90;;;;;;4971964;28;20522;-79
2021/06/14 05:34:54;;;;;;;2.23;1.90;;;18.70;99.90;;;;;;4971433;28;20468;-78
2021/06/14 05:37:24;;;;;;;2.60;1.80;;;18.80;99.90;;;;;;4972849;28;20512;-77
2021/06/14 05:39:52;;;;;;;2.53;1.73;;;18.80;99.90;;;;;;4978815;28;21027;-79
2021/06/14 05:42:20;;;;;;;2.07;1.70;;;18.90;99.90;;;;;;4976963;28;20490;-78
2021/06/14 05:44:48;;;;;;;2.83;1.40;;;18.90;99.90;;;;;;4977348;28;20462;-78
2021/06/14 05:47:17;;;;;;;2.03;1.80;;;18.90;99.90;;;;;;4970251;28;20462;-78
2021/06/14 05:49:45;;;;;;;3.30;2.03;;;19.00;99.90;;;;;;4969878;28;20482;-79
2021/06/14 05:52:13;;;;;;;4.07;2.00;;;19.00;99.90;;;;;;4976091;28;20513;-79
2021/06/14 05:54:42;;;;;;;2.30;1.63;;;19.10;99.90;;;;;;4971064;28;20538;-78
2021/06/14 05:57:11;;;;;;;2.60;2.30;;;19.30;99.90;;;;;;4956630;28;20470;-77
2021/06/14 05:59:39;;;;;;;1.93;1.80;;;19.20;99.90;;;;;;4970515;28;20538;-77
2021/06/14 06:02:08;;;;;;;2.03;1.40;;;19.30;99.90;;;;;;4965796;28;20925;-78
2021/06/14 06:04:36;;;;;;;5.20;1.80;;;19.30;99.90;;;;;;4959525;28;20454;-78
2021/06/14 06:07:06;;;;;;;2.33;1.90;;;19.30;99.90;;;;;;4971149;28;20463;-79
2021/06/14 06:09:34;;;;;;;1.70;1.37;;;19.40;99.90;;;;;;4953851;28;21317;-77
2021/06/14 06:12:04;;;;;;;4.40;2.83;;;19.40;99.90;;;;;;4970071;28;20475;-77
2021/06/14 06:14:32;;;;;;;3.70;2.00;;;19.40;99.90;;;;;;4961233;28;20485;-74
2021/06/14 06:17:00;;;;;;;2.30;1.60;;;19.50;99.90;;;;;;4972232;28;20202;-78
2021/06/14 06:19:29;;;;;;;1.70;1.47;;;19.50;99.90;;;;;;4990780;28;20466;-77
2021/06/14 06:21:57;;;;;;;5.90;1.63;;;19.50;99.90;;;;;;4990166;28;20498;-76
2021/06/14 06:24:25;;;;;;;1.97;1.70;;;19.60;99.90;;;;;;4976037;28;21175;-77
2021/06/14 06:26:53;;;;;;;2.20;1.97;;;19.60;99.90;;;;;;4972977;28;21032;-78
2021/06/14 06:29:22;;;;;;;3.40;1.87;;;19.60;99.90;;;;;;4975415;28;20483;-76
2021/06/14 06:31:51;;;;;;;4.13;1.80;;;19.70;99.90;;;;;;4974648;28;20452;-76
2021/06/14 06:34:19;;;;;;;1.90;1.63;;;19.80;99.90;;;;;;4973071;28;20554;-77
2021/06/14 06:36:47;;;;;;;2.20;1.90;;;19.80;99.90;;;;;;4988265;28;20458;-77
2021/06/14 06:39:15;;;;;;;1.57;1.47;;;19.70;99.90;;;;;;4990319;28;21131;-80
2021/06/14 06:41:43;;;;;;;2.00;1.80;;;19.80;99.90;;;;;;4971520;28;20497;-77
2021/06/14 06:44:12;;;;;;;4.93;1.73;;;19.80;99.90;;;;;;4992645;28;20434;-77
2021/06/14 06:46:41;;;;;;;3.50;1.70;;;19.80;99.90;;;;;;4969856;28;20475;-78
2021/06/14 06:49:09;;;;;;;2.40;1.60;;;19.80;99.90;;;;;;4961906;28;20494;-78
2021/06/14 06:51:37;;;;;;;1.70;1.60;;;19.90;99.90;;;;;;4971618;28;20459;-78
2021/06/14 06:54:14;;;;;;;3.30;1.77;;;19.90;99.90;;;;;;4992420;28;20520;-76
2021/06/14 06:56:46;;;;;;;1.87;1.77;;;20.00;99.90;;;;;;4987019;28;20490;-78
2021/06/14 06:59:15;;;;;;;3.63;1.70;;;20.10;99.90;;;;;;4992139;28;20994;-77
2021/06/14 07:01:45;;;;;;;3.50;1.60;;;20.30;99.90;;;;;;4980520;28;20467;-79
2021/06/14 07:04:14;;;;;;;2.00;1.70;;;20.40;99.90;;;;;;4973069;28;20509;-77
2021/06/14 07:06:42;;;;;;;2.33;1.87;;;20.50;99.90;;;;;;4971917;28;20506;-76
2021/06/14 07:09:11;;;;;;;2.80;1.47;;;20.60;99.90;;;;;;4972461;28;20463;-77
2021/06/14 07:11:41;;;;;;;2.80;1.90;;;20.60;99.90;;;;;;4982644;28;20465;-77
2021/06/14 07:14:09;;;;;;;2.13;1.93;;;20.80;99.90;;;;;;4991029;28;20485;-78
2021/06/14 07:16:39;;;;;;;7.90;2.87;;;20.90;99.90;;;;;;4982043;28;20453;-78
2021/06/14 07:19:09;;;;;;;3.07;1.70;;;21.00;99.90;;;;;;4973485;28;20513;-78
2021/06/14 07:21:38;;;;;;;2.60;1.90;;;21.00;99.90;;;;;;4986695;28;20447;-75
2021/06/14 07:24:07;;;;;;;2.43;1.50;;;21.00;99.90;;;;;;4971932;28;21014;-75
2021/06/14 07:26:36;;;;;;;3.40;1.60;;;21.00;99.90;;;;;;4965910;28;20519;-77
2021/06/14 07:29:04;;;;;;;1.70;1.60;;;21.10;99.90;;;;;;4967493;28;20555;-80
2021/06/14 07:31:33;;;;;;;3.70;1.90;;;21.20;99.90;;;;;;4960833;28;20477;-82
2021/06/14 07:34:02;;;;;;;3.43;1.97;;;21.20;99.90;;;;;;4968955;28;20470;-79
2021/06/14 07:36:31;;;;;;;2.20;1.60;;;21.30;99.90;;;;;;4975807;28;20574;-81
2021/06/14 07:38:59;;;;;;;2.50;1.67;;;21.30;99.90;;;;;;4969580;28;20541;-80
2021/06/14 07:41:31;;;;;;;2.97;1.93;;;21.30;99.90;;;;;;4966686;28;21013;-77
2021/06/14 07:44:00;;;;;;;2.07;1.97;;;21.30;99.90;;;;;;4953842;28;20839;-79
2021/06/14 07:46:29;;;;;;;3.07;1.60;;;21.30;99.90;;;;;;4966107;28;20642;-82
2021/06/14 07:48:57;;;;;;;2.47;1.73;;;21.30;99.90;;;;;;4962567;28;20494;-80
2021/06/14 07:51:25;;;;;;;3.07;1.67;;;21.40;99.90;;;;;;4972408;28;20472;-79
2021/06/14 07:53:56;;;;;;;3.90;1.73;;;21.40;99.90;;;;;;4972266;28;20447;-80
2021/06/14 07:56:24;;;;;;;3.90;1.80;;;21.40;99.90;;;;;;4969077;28;20847;-80
2021/06/14 07:58:52;;;;;;;3.53;2.23;;;21.40;99.90;;;;;;4971875;28;20509;-79
2021/06/14 08:01:21;;;;;;;3.43;1.60;;;21.40;99.90;;;;;;4966288;28;21241;-80
2021/06/14 08:03:50;;;;;;;7.17;1.90;;;21.50;99.90;;;;;;4983069;28;20768;-77
2021/06/14 08:06:18;;;;;;;3.43;1.97;;;21.50;99.90;;;;;;4970517;28;20819;-80
2021/06/14 08:08:46;;;;;;;3.33;2.00;;;21.50;99.90;;;;;;4969134;28;20459;-81
2021/06/14 08:11:18;;;;;;;2.13;2.03;;;21.50;99.90;;;;;;4970929;28;20886;-79
2021/06/14 08:13:46;;;;;;;4.70;1.80;;;21.60;99.90;;;;;;4957569;28;21034;-81
2021/06/14 08:16:31;;;;;;;2.53;1.73;;;21.60;99.90;;;;;;4972615;28;20517;-80
2021/06/14 08:19:05;;;;;;;2.77;1.80;;;21.70;99.90;;;;;;4970493;28;20489;-80
2021/06/14 08:21:47;;;;;;;2.03;1.80;;;21.70;99.90;;;;;;4969400;28;20505;-79
2021/06/14 08:27:05;;;;;;;4.20;2.33;;;21.90;99.90;;;;;;4954441;28;20474;-81
2021/06/14 08:29:33;;;;;;;1.70;1.60;;;21.90;99.90;;;;;;4971157;28;20485;-80
2021/06/14 08:32:02;;;;;;;3.37;1.50;;;22.00;99.90;;;;;;4965937;28;20960;-79
2021/06/14 08:34:30;;;;;;;2.27;2.07;;;22.00;99.90;;;;;;4972094;28;20439;-79
2021/06/14 08:36:58;;;;;;;2.13;1.93;;;22.00;99.90;;;;;;4960778;28;20551;-80
2021/06/14 08:39:26;;;;;;;1.83;1.70;;;21.90;99.90;;;;;;4969414;28;20990;-82
2021/06/14 08:41:55;;;;;;;2.47;1.77;;;22.00;99.90;;;;;;4969335;28;20514;-82
2021/06/14 08:44:25;;;;;;;2.00;1.63;;;22.00;99.90;;;;;;4962388;28;20489;-80
2021/06/14 08:46:56;;;;;;;3.47;1.63;;;22.00;99.90;;;;;;4963298;28;20453;-81
2021/06/14 08:49:24;;;;;;;3.40;1.83;;;22.10;99.90;;;;;;4953661;28;20535;-79
2021/06/14 08:51:53;;;;;;;3.10;1.93;;;22.10;99.90;;;;;;4963984;28;20914;-79
2021/06/14 08:54:21;;;;;;;1.70;1.60;;;22.20;99.90;;;;;;4973452;28;20428;-81
2021/06/14 08:56:49;;;;;;;2.33;1.60;;;22.20;99.90;;;;;;4957134;28;20454;-79
2021/06/14 08:59:18;;;;;;;2.97;1.73;;;22.30;99.90;;;;;;4967763;28;20516;-81
2021/06/14 09:01:47;;;;;;;2.63;1.90;;;22.30;99.90;;;;;;4968877;28;20462;-80
2021/06/14 09:04:16;;;;;;;3.57;1.80;;;22.40;99.90;;;;;;4960292;28;20465;-80
2021/06/14 09:06:44;;;;;;;3.13;1.60;;;22.40;99.90;;;;;;4966008;28;20458;-79
2021/06/14 09:09:12;;;;;;;3.37;2.20;;;22.40;99.90;;;;;;4967851;28;20474;-79
2021/06/14 09:11:50;;;;;;;2.70;1.80;;;22.40;99.90;;;;;;4970942;28;20558;-81
2021/06/14 09:14:20;;;;;;;2.00;1.90;;;22.40;99.90;;;;;;4964846;28;20462;-80
2021/06/14 09:16:51;;;;;;;1.87;1.50;;;22.50;99.90;;;;;;4967748;28;20477;-80
2021/06/14 09:19:30;;;;;;;1.57;1.37;;;22.60;99.90;;;;;;4971794;28;20802;-79
2021/06/14 09:22:12;;;;;;;2.80;1.80;;;22.60;99.90;;;;;;4968801;28;20452;-79
2021/06/14 09:24:53;;;;;;;2.07;1.87;;;22.70;99.90;;;;;;4971763;28;20552;-79
2021/06/14 09:27:32;;;;;;;2.10;1.70;;;22.80;99.90;;;;;;4967788;28;20462;-79
2021/06/14 09:30:12;;;;;;;2.07;1.90;;;22.80;99.90;;;;;;4971760;28;20489;-79
2021/06/14 09:32:53;;;;;;;2.10;1.90;;;22.80;99.90;;;;;;4962116;28;20469;-78
2021/06/14 09:35:22;;;;;;;2.70;2.27;;;22.80;99.90;;;;;;4969632;28;20454;-78
2021/06/14 09:38:01;;;;;;;2.10;1.80;;;22.90;99.90;;;;;;4952952;28;20527;-81
2021/06/14 09:40:34;;;;;;;2.20;1.23;;;22.90;99.90;;;;;;4966520;28;20566;-79
2021/06/14 09:43:06;;;;;;;2.27;1.73;;;23.00;99.90;;;;;;4961562;28;20624;-79
2021/06/14 09:45:40;;;;;;;2.27;1.60;;;23.10;99.90;;;;;;4966041;28;20519;-77
2021/06/14 09:48:17;;;;;;;2.80;1.90;;;23.10;99.90;;;;;;4986295;28;20466;-80
2021/06/14 09:50:47;;;;;;;3.20;1.60;;;23.20;99.90;;;;;;4971132;28;20496;-79
2021/06/14 09:53:18;;;;;;;2.50;1.50;;;23.30;99.90;;;;;;4962208;28;20459;-79
2021/06/14 09:55:48;;;;;;;2.10;1.50;;;23.30;99.90;;;;;;4959715;28;20444;-78
2021/06/14 09:58:18;;;;;;;1.50;1.40;;;23.30;99.90;;;;;;4967379;28;20452;-78
2021/06/14 10:00:55;;;;;;;1.57;1.30;;;23.40;99.90;;;;;;4961542;28;20472;-78
2021/06/14 10:03:26;;;;;;;1.87;1.30;;;23.40;99.90;;;;;;4967619;28;20455;-80
2021/06/14 10:05:57;;;;;;;1.50;1.37;;;23.40;99.90;;;;;;4958824;28;20467;-80
2021/06/14 10:08:27;;;;;;;3.63;1.57;;;23.40;99.90;;;;;;4970331;28;20557;-80
2021/06/14 10:11:09;;;;;;;1.63;1.53;;;23.40;99.90;;;;;;4962393;28;20538;-78
2021/06/14 10:13:39;;;;;;;1.40;1.30;;;23.50;99.90;;;;;;4967063;28;21057;-79
2021/06/14 10:16:10;;;;;;;1.60;1.40;;;23.50;99.90;;;;;;4953658;28;20451;-78
2021/06/14 10:18:42;;;;;;;2.73;1.80;;;23.50;99.90;;;;;;4966861;28;20443;-78
2021/06/14 10:21:23;;;;;;;1.40;1.10;;;23.60;99.90;;;;;;4970304;28;20475;-79
2021/06/14 10:23:53;;;;;;;1.73;1.50;;;23.60;99.90;;;;;;4968930;28;20479;-80
2021/06/14 10:26:21;;;;;;;2.70;1.30;;;23.70;99.90;;;;;;4964970;28;20451;-78
2021/06/14 10:28:50;;;;;;;2.20;1.33;;;23.70;99.90;;;;;;4968007;28;20466;-78
2021/06/14 10:31:19;;;;;;;2.37;1.97;;;23.70;99.90;;;;;;4971925;28;20529;-79
2021/06/14 10:33:50;;;;;;;2.77;1.60;;;23.70;99.90;;;;;;4969352;28;20807;-78
2021/06/14 10:36:22;;;;;;;4.53;1.50;;;23.80;99.90;;;;;;4962638;28;20479;-79
2021/06/14 10:38:51;;;;;;;3.20;1.77;;;23.70;99.90;;;;;;4969271;28;20466;-79
2021/06/14 10:41:21;;;;;;;2.43;1.30;;;23.80;99.90;;;;;;4970460;28;21031;-79
2021/06/14 10:43:50;;;;;;;2.50;1.53;;;23.80;99.90;;;;;;4967805;28;21034;-78
2021/06/14 10:46:22;;;;;;;2.55;1.83;;;23.90;99.90;;;;;;4951205;28;20455;-80
2021/06/14 10:48:57;;;;;;;2.67;1.47;;;24.00;99.90;;;;;;4962073;28;20210;-78
2021/06/14 10:51:26;;;;;;;1.73;1.63;;;23.90;99.90;;;;;;4969070;28;20466;-78
2021/06/14 10:54:05;;;;;;;3.37;1.57;;;24.00;99.90;;;;;;4968182;28;20455;-77
2021/06/14 10:56:34;;;;;;;1.70;1.60;;;24.00;99.90;;;;;;4968631;28;20463;-77
2021/06/14 10:59:04;;;;;;;3.85;1.50;;;24.00;99.90;;;;;;4964651;28;21913;-78
2021/06/14 11:01:34;;;;;;;2.17;1.97;;;24.10;99.90;;;;;;4967238;28;20199;-77
2021/06/14 11:04:06;;;;;;;3.60;1.60;;;24.10;99.90;;;;;;4959519;28;20848;-80
2021/06/14 11:06:36;;;;;;;2.77;1.20;;;24.10;99.90;;;;;;4968731;28;20474;-78
2021/06/14 11:09:10;;;;;;;2.20;1.50;;;24.20;99.90;;;;;;4962848;28;20475;-80
2021/06/14 11:11:50;;;;;;;2.10;1.37;;;24.20;99.90;;;;;;4965786;28;21067;-79
2021/06/14 11:14:34;;;;;;;2.70;1.63;;;24.30;99.90;;;;;;4966408;28;20510;-78
2021/06/14 11:17:16;;;;;;;2.30;1.77;;;24.30;99.90;;;;;;4967393;28;20460;-77
2021/06/14 11:19:46;;;;;;;3.80;2.10;;;24.30;99.90;;;;;;4962216;28;21049;-78
2021/06/14 11:22:15;;;;;;;2.50;1.50;;;24.30;99.90;;;;;;4964224;28;20523;-78
2021/06/14 11:24:43;;;;;;;1.87;1.40;;;24.30;99.90;;;;;;4964271;28;20482;-77
2021/06/14 11:27:13;;;;;;;2.03;1.60;;;24.40;99.90;;;;;;4958154;28;20504;-78
2021/06/14 11:29:49;;;;;;;2.23;1.30;;;24.40;99.90;;;;;;4954819;28;20897;-78
2021/06/14 11:32:20;;;;;;;2.30;1.60;;;24.40;99.90;;;;;;4967919;28;20528;-79
2021/06/14 11:34:53;;;;;;;4.60;1.47;;;24.50;99.90;;;;;;4967255;28;20461;-80
2021/06/14 11:37:21;;;;;;;2.00;1.50;;;24.50;99.90;;;;;;4969316;28;20953;-78
2021/06/14 11:40:00;;;;;;;2.27;1.30;;;24.50;99.90;;;;;;4967886;28;20924;-78
2021/06/14 11:42:29;;;;;;;1.77;1.30;;;24.50;99.90;;;;;;4956526;28;20538;-78
2021/06/14 11:45:00;;;;;;;2.47;1.50;;;24.50;99.90;;;;;;4964127;28;20491;-77
2021/06/14 11:47:29;;;;;;;2.43;1.47;;;24.60;99.90;;;;;;4968171;28;20462;-78
2021/06/14 11:50:02;;;;;;;2.37;1.50;;;24.60;99.90;;;;;;4969240;28;20553;-78
2021/06/14 11:52:34;;;;;;;3.40;1.50;;;24.70;99.90;;;;;;4956803;28;20452;-78
2021/06/14 11:55:08;;;;;;;3.93;1.50;;;24.70;99.90;;;;;;4963753;28;20947;-78
2021/06/14 11:57:38;;;;;;;1.87;1.50;;;24.80;99.90;;;;;;4966998;28;20542;-79
2021/06/14 12:00:11;;;;;;;5.00;1.73;;;24.80;99.90;;;;;;4965301;28;20918;-77
2021/06/14 12:02:39;;;;;;;2.77;1.53;;;24.80;99.90;;;;;;4969518;28;20458;-77
2021/06/14 12:05:12;;;;;;;1.60;1.50;;;24.80;99.90;;;;;;4956823;28;20822;-77
2021/06/14 12:07:43;;;;;;;1.60;1.40;;;24.90;99.90;;;;;;4969096;28;20489;-77
2021/06/14 12:10:13;;;;;;;1.70;1.60;;;24.90;99.90;;;;;;4962528;28;20475;-77
2021/06/14 12:12:44;;;;;;;2.50;1.30;;;24.90;99.90;;;;;;4966288;28;20486;-77
2021/06/14 12:15:13;;;;;;;1.50;1.20;;;24.80;99.90;;;;;;4969069;28;20463;-76
2021/06/14 12:17:44;;;;;;;2.00;1.73;;;24.80;99.90;;;;;;4957515;28;20527;-76
2021/06/14 12:20:15;;;;;;;2.37;1.30;;;24.90;99.90;;;;;;4965170;28;20475;-79
2021/06/14 12:22:43;;;;;;;1.93;1.77;;;24.80;99.90;;;;;;4968889;28;20458;-79
2021/06/14 12:25:13;;;;;;;3.43;1.60;;;24.90;99.90;;;;;;4968981;28;20498;-78
2021/06/14 12:27:42;;;;;;;2.50;1.70;;;24.90;99.90;;;;;;4962089;28;20985;-78
2021/06/14 12:30:12;;;;;;;3.40;1.57;;;24.90;99.90;;;;;;4969367;28;20501;-78
2021/06/14 12:32:41;;;;;;;3.60;1.70;;;25.00;99.90;;;;;;4967925;28;20454;-77
2021/06/14 12:35:11;;;;;;;1.63;1.53;;;25.10;99.90;;;;;;4962490;28;20535;-77
2021/06/14 12:37:41;;;;;;;2.00;1.37;;;25.10;99.90;;;;;;4969596;28;20447;-78
2021/06/14 12:40:12;;;;;;;3.93;1.60;;;25.10;99.90;;;;;;4962490;28;20468;-77
2021/06/14 12:42:41;;;;;;;2.37;1.30;;;25.10;99.90;;;;;;4960066;28;20852;-77
2021/06/14 12:45:11;;;;;;;1.67;1.10;;;25.10;99.90;;;;;;4968077;28;20475;-80
2021/06/14 12:47:43;;;;;;;1.93;1.30;;;25.20;99.90;;;;;;4966521;28;20444;-77
2021/06/14 12:50:15;;;;;;;4.10;2.30;;;25.10;99.90;;;;;;4964498;28;20481;-77
2021/06/14 12:52:45;;;;;;;1.70;1.60;;;25.10;99.90;;;;;;4969246;28;20518;-77
2021/06/14 12:55:18;;;;;;;2.50;1.30;;;25.20;99.90;;;;;;4968154;28;20749;-77
2021/06/14 12:57:47;;;;;;;2.10;1.67;;;25.20;99.90;;;;;;4967717;28;21212;-78
2021/06/14 13:00:17;;;;;;;2.00;1.70;;;25.20;99.90;;;;;;4964123;28;20482;-76
2021/06/14 13:02:51;;;;;;;3.57;1.67;;;25.30;99.90;;;;;;4967433;28;20455;-78
2021/06/14 13:05:23;;;;;;;3.05;1.70;;;25.30;99.90;;;;;;4970580;28;20540;-78